sensor_id;sensor_type;location;lat;lon;timestamp;pressure;altitude;pressure_sealevel;temperature;humidity
59767;BME280;46248;58.364;25.582;2023-01-30T00:03:06;98309.09;;;0.00;100.00
59767;BME280;46248;58.364;25.582;2023-01-30T00:06:28;98292.91;;;-0.04;100.00
59767;BME280;46248;58.364;25.582;2023-01-30T00:09:50;98270.53;;;-0.02;100.00
59767;BME280;46248;58.364;25.582;2023-01-30T00:13:12;98257.72;;;-0.03;100.00
59767;BME280;46248;58.364;25.582;2023-01-30T00:16:34;98252.50;;;0.00;100.00
59767;BME280;46248;58.364;25.582;2023-01-30T00:19:58;98244.69;;;0.02;100.00
59767;BME280;46248;58.364;25.582;2023-01-30T00:23:20;98216.47;;;0.00;100.00
59767;BME280;46248;58.364;25.582;2023-01-30T00:26:42;98208.66;;;0.02;100.00
59767;BME280;46248;58.364;25.582;2023-01-30T00:30:04;98201.88;;;0.01;100.00
59767;BME280;46248;58.364;25.582;2023-01-30T00:33:27;98200.13;;;0.01;100.00
59767;BME280;46248;58.364;25.582;2023-01-30T00:36:50;98193.22;;;0.02;100.00
59767;BME280;46248;58.364;25.582;2023-01-30T00:40:28;98195.75;;;0.03;100.00
59767;BME280;46248;58.364;25.582;2023-01-30T00:43:50;98172.78;;;-0.02;100.00
59767;BME280;46248;58.364;25.582;2023-01-30T00:47:29;98158.19;;;-0.01;100.00
59767;BME280;46248;58.364;25.582;2023-01-30T00:50:51;98167.31;;;0.06;100.00
59767;BME280;46248;58.364;25.582;2023-01-30T00:54:14;98161.16;;;0.09;100.00
59767;BME280;46248;58.364;25.582;2023-01-30T00:57:36;98157.75;;;0.08;100.00
59767;BME280;46248;58.364;25.582;2023-01-30T01:00:58;98147.41;;;0.10;100.00
59767;BME280;46248;58.364;25.582;2023-01-30T01:04:20;98152.41;;;0.13;100.00
59767;BME280;46248;58.364;25.582;2023-01-30T01:07:42;98138.56;;;0.15;100.00
59767;BME280;46248;58.364;25.582;2023-01-30T01:11:05;98141.97;;;0.16;100.00
59767;BME280;46248;58.364;25.582;2023-01-30T01:14:27;98136.72;;;0.17;100.00
59767;BME280;46248;58.364;25.582;2023-01-30T01:17:49;98117.06;;;0.16;100.00
59767;BME280;46248;58.364;25.582;2023-01-30T01:21:12;98110.19;;;0.17;100.00
59767;BME280;46248;58.364;25.582;2023-01-30T01:24:34;98105.03;;;0.17;100.00
59767;BME280;46248;58.364;25.582;2023-01-30T01:27:57;98096.38;;;0.18;100.00
59767;BME280;46248;58.364;25.582;2023-01-30T01:31:19;98081.81;;;0.18;100.00
59767;BME280;46248;58.364;25.582;2023-01-30T01:34:41;98064.53;;;0.20;100.00
59767;BME280;46248;58.364;25.582;2023-01-30T01:38:03;98057.59;;;0.22;100.00
59767;BME280;46248;58.364;25.582;2023-01-30T01:41:25;98048.94;;;0.23;100.00
59767;BME280;46248;58.364;25.582;2023-01-30T01:45:01;98035.25;;;0.23;100.00
59767;BME280;46248;58.364;25.582;2023-01-30T01:48:26;98021.41;;;0.26;100.00
59767;BME280;46248;58.364;25.582;2023-01-30T01:51:53;98016.16;;;0.27;100.00
59767;BME280;46248;58.364;25.582;2023-01-30T01:55:16;98007.47;;;0.30;100.00
59767;BME280;46248;58.364;25.582;2023-01-30T01:58:44;98007.25;;;0.34;100.00
59767;BME280;46248;58.364;25.582;2023-01-30T02:02:11;97989.06;;;0.37;100.00
59767;BME280;46248;58.364;25.582;2023-01-30T02:05:38;97982.13;;;0.39;100.00
59767;BME280;46248;58.364;25.582;2023-01-30T02:09:05;97975.81;;;0.45;100.00
59767;BME280;46248;58.364;25.582;2023-01-30T02:12:28;97956.81;;;0.30;100.00
59767;BME280;46248;58.364;25.582;2023-01-30T02:15:50;97965.34;;;0.48;100.00
59767;BME280;46248;58.364;25.582;2023-01-30T02:19:23;97969.44;;;0.52;100.00
59767;BME280;46248;58.364;25.582;2023-01-30T02:23:12;97955.59;;;0.55;100.00
59767;BME280;46248;58.364;25.582;2023-01-30T02:27:15;97947.00;;;0.54;100.00
59767;BME280;46248;58.364;25.582;2023-01-30T02:30:49;97944.28;;;0.57;100.00
59767;BME280;46248;58.364;25.582;2023-01-30T02:34:29;97935.66;;;0.58;100.00
59767;BME280;46248;58.364;25.582;2023-01-30T02:38:07;97915.13;;;0.57;100.00
59767;BME280;46248;58.364;25.582;2023-01-30T02:41:36;97904.09;;;0.55;100.00
59767;BME280;46248;58.364;25.582;2023-01-30T02:45:09;97901.19;;;0.61;100.00
59767;BME280;46248;58.364;25.582;2023-01-30T02:48:37;97900.09;;;0.65;100.00
59767;BME280;46248;58.364;25.582;2023-01-30T02:52:01;97888.97;;;0.64;100.00
59767;BME280;46248;58.364;25.582;2023-01-30T02:55:25;97881.97;;;0.66;100.00
59767;BME280;46248;58.364;25.582;2023-01-30T02:58:48;97860.50;;;0.67;100.00
59767;BME280;46248;58.364;25.582;2023-01-30T03:02:23;97854.41;;;0.68;100.00
59767;BME280;46248;58.364;25.582;2023-01-30T03:06:09;97849.94;;;0.72;100.00
59767;BME280;46248;58.364;25.582;2023-01-30T03:09:42;97838.03;;;0.69;100.00
59767;BME280;46248;58.364;25.582;2023-01-30T03:13:12;97829.50;;;0.69;100.00
59767;BME280;46248;58.364;25.582;2023-01-30T03:16:37;97821.28;;;0.62;100.00
59767;BME280;46248;58.364;25.582;2023-01-30T03:20:00;97816.88;;;0.64;100.00
59767;BME280;46248;58.364;25.582;2023-01-30T03:23:24;97805.75;;;0.64;100.00
59767;BME280;46248;58.364;25.582;2023-01-30T03:26:49;97791.28;;;0.61;100.00
59767;BME280;46248;58.364;25.582;2023-01-30T03:30:13;97794.88;;;0.59;100.00
59767;BME280;46248;58.364;25.582;2023-01-30T03:33:35;97785.66;;;0.55;100.00
59767;BME280;46248;58.364;25.582;2023-01-30T03:36:57;97773.78;;;0.52;100.00
59767;BME280;46248;58.364;25.582;2023-01-30T03:40:21;97779.25;;;0.46;100.00
59767;BME280;46248;58.364;25.582;2023-01-30T03:43:43;97762.41;;;0.40;100.00
59767;BME280;46248;58.364;25.582;2023-01-30T03:47:05;97768.47;;;0.39;100.00
59767;BME280;46248;58.364;25.582;2023-01-30T03:50:27;97754.91;;;0.36;100.00
59767;BME280;46248;58.364;25.582;2023-01-30T03:53:48;97748.19;;;0.33;100.00
59767;BME280;46248;58.364;25.582;2023-01-30T03:57:12;97741.53;;;0.29;100.00
59767;BME280;46248;58.364;25.582;2023-01-30T04:00:34;97739.78;;;0.30;100.00
59767;BME280;46248;58.364;25.582;2023-01-30T04:03:56;97733.16;;;0.26;100.00
59767;BME280;46248;58.364;25.582;2023-01-30T04:07:18;97727.34;;;0.22;100.00
59767;BME280;46248;58.364;25.582;2023-01-30T04:10:40;97718.88;;;0.20;100.00
59767;BME280;46248;58.364;25.582;2023-01-30T04:14:03;97708.25;;;0.10;100.00
59767;BME280;46248;58.364;25.582;2023-01-30T04:17:25;97703.94;;;0.11;100.00
59767;BME280;46248;58.364;25.582;2023-01-30T04:20:47;97676.63;;;-0.08;100.00
59767;BME280;46248;58.364;25.582;2023-01-30T04:24:08;97679.53;;;0.02;100.00
59767;BME280;46248;58.364;25.582;2023-01-30T04:27:31;97688.84;;;0.05;100.00
59767;BME280;46248;58.364;25.582;2023-01-30T04:30:54;97676.91;;;0.04;100.00
59767;BME280;46248;58.364;25.582;2023-01-30T04:34:17;97660.63;;;0.03;100.00
59767;BME280;46248;58.364;25.582;2023-01-30T04:37:38;97654.81;;;-0.01;100.00
59767;BME280;46248;58.364;25.582;2023-01-30T04:41:01;97654.97;;;-0.04;100.00
59767;BME280;46248;58.364;25.582;2023-01-30T04:44:24;97644.69;;;-0.04;100.00
59767;BME280;46248;58.364;25.582;2023-01-30T04:47:47;97621.88;;;-0.10;100.00
59767;BME280;46248;58.364;25.582;2023-01-30T04:51:09;97620.06;;;-0.08;100.00
59767;BME280;46248;58.364;25.582;2023-01-30T04:54:31;97613.16;;;-0.07;100.00
59767;BME280;46248;58.364;25.582;2023-01-30T04:57:53;97608.00;;;-0.07;100.00
59767;BME280;46248;58.364;25.582;2023-01-30T05:01:21;97597.72;;;-0.07;100.00
59767;BME280;46248;58.364;25.582;2023-01-30T05:04:44;97585.03;;;-0.10;100.00
59767;BME280;46248;58.364;25.582;2023-01-30T05:08:09;97574.84;;;-0.12;100.00
59767;BME280;46248;58.364;25.582;2023-01-30T05:11:31;97566.38;;;-0.14;100.00
59767;BME280;46248;58.364;25.582;2023-01-30T05:14:53;97559.59;;;-0.15;100.00
59767;BME280;46248;58.364;25.582;2023-01-30T05:18:15;97556.09;;;-0.14;100.00
59767;BME280;46248;58.364;25.582;2023-01-30T05:21:38;97548.38;;;-0.14;100.00
59767;BME280;46248;58.364;25.582;2023-01-30T05:25:01;97533.88;;;-0.15;100.00
59767;BME280;46248;58.364;25.582;2023-01-30T05:28:23;97528.78;;;-0.16;100.00
59767;BME280;46248;58.364;25.582;2023-01-30T05:31:45;97521.66;;;-0.11;100.00
59767;BME280;46248;58.364;25.582;2023-01-30T05:35:08;97514.19;;;-0.16;100.00
59767;BME280;46248;58.364;25.582;2023-01-30T05:38:31;97516.69;;;-0.14;100.00
59767;BME280;46248;58.364;25.582;2023-01-30T05:41:53;97506.47;;;-0.16;100.00
59767;BME280;46248;58.364;25.582;2023-01-30T05:45:15;97502.09;;;-0.14;100.00
59767;BME280;46248;58.364;25.582;2023-01-30T05:48:39;97503.84;;;-0.14;100.00
59767;BME280;46248;58.364;25.582;2023-01-30T05:52:01;97486.56;;;-0.12;100.00
59767;BME280;46248;58.364;25.582;2023-01-30T05:55:24;97485.72;;;-0.13;100.00
59767;BME280;46248;58.364;25.582;2023-01-30T05:58:50;97477.13;;;-0.12;100.00
59767;BME280;46248;58.364;25.582;2023-01-30T06:02:12;97449.19;;;-0.18;100.00
59767;BME280;46248;58.364;25.582;2023-01-30T06:05:36;97444.59;;;-0.13;100.00
59767;BME280;46248;58.364;25.582;2023-01-30T06:08:58;97444.59;;;-0.13;100.00
59767;BME280;46248;58.364;25.582;2023-01-30T06:12:21;97434.03;;;-0.08;100.00
59767;BME280;46248;58.364;25.582;2023-01-30T06:15:44;97422.94;;;-0.09;100.00
59767;BME280;46248;58.364;25.582;2023-01-30T06:19:07;97429.72;;;-0.08;100.00
59767;BME280;46248;58.364;25.582;2023-01-30T06:22:29;97424.59;;;-0.08;100.00
59767;BME280;46248;58.364;25.582;2023-01-30T06:25:52;97422.84;;;-0.07;100.00
59767;BME280;46248;58.364;25.582;2023-01-30T06:29:16;97416.88;;;-0.08;100.00
59767;BME280;46248;58.364;25.582;2023-01-30T06:32:38;97405.56;;;-0.05;100.00
59767;BME280;46248;58.364;25.582;2023-01-30T06:36:01;97397.22;;;-0.09;100.00
59767;BME280;46248;58.364;25.582;2023-01-30T06:39:23;97399.59;;;-0.06;100.00
59767;BME280;46248;58.364;25.582;2023-01-30T06:42:45;97392.91;;;-0.08;100.00
59767;BME280;46248;58.364;25.582;2023-01-30T06:46:08;97387.66;;;-0.07;100.00
59767;BME280;46248;58.364;25.582;2023-01-30T06:49:30;97394.47;;;-0.06;100.00
59767;BME280;46248;58.364;25.582;2023-01-30T06:52:53;97393.06;;;-0.11;100.00
59767;BME280;46248;58.364;25.582;2023-01-30T06:56:15;97368.06;;;-0.09;100.00
59767;BME280;46248;58.364;25.582;2023-01-30T06:59:37;97394.47;;;-0.06;100.00
59767;BME280;46248;58.364;25.582;2023-01-30T07:03:00;97392.63;;;-0.04;100.00
59767;BME280;46248;58.364;25.582;2023-01-30T07:06:22;97379.84;;;-0.05;100.00
59767;BME280;46248;58.364;25.582;2023-01-30T07:09:44;97382.31;;;-0.04;100.00
59767;BME280;46248;58.364;25.582;2023-01-30T07:13:21;97384.00;;;-0.03;100.00
59767;BME280;46248;58.364;25.582;2023-01-30T07:16:43;97377.94;;;-0.02;100.00
59767;BME280;46248;58.364;25.582;2023-01-30T07:20:08;97371.03;;;-0.01;100.00
59767;BME280;46248;58.364;25.582;2023-01-30T07:23:31;97369.22;;;0.01;100.00
59767;BME280;46248;58.364;25.582;2023-01-30T07:26:52;97360.50;;;0.04;100.00
59767;BME280;46248;58.364;25.582;2023-01-30T07:30:15;97356.16;;;0.04;100.00
59767;BME280;46248;58.364;25.582;2023-01-30T07:33:37;97349.19;;;0.06;100.00
59767;BME280;46248;58.364;25.582;2023-01-30T07:37:00;97325.47;;;0.01;100.00
59767;BME280;46248;58.364;25.582;2023-01-30T07:40:22;97343.75;;;0.11;100.00
59767;BME280;46248;58.364;25.582;2023-01-30T07:43:44;97341.75;;;0.16;100.00
59767;BME280;46248;58.364;25.582;2023-01-30T07:47:06;97336.59;;;0.16;100.00
59767;BME280;46248;58.364;25.582;2023-01-30T07:50:28;97327.41;;;0.12;100.00
59767;BME280;46248;58.364;25.582;2023-01-30T07:53:51;97323.56;;;0.19;100.00
59767;BME280;46248;58.364;25.582;2023-01-30T07:57:13;97330.34;;;0.20;100.00
59767;BME280;46248;58.364;25.582;2023-01-30T08:00:35;97327.69;;;0.21;100.00
59767;BME280;46248;58.364;25.582;2023-01-30T08:03:57;97300.31;;;0.06;100.00
59767;BME280;46248;58.364;25.582;2023-01-30T08:07:18;97314.91;;;0.20;100.00
59767;BME280;46248;58.364;25.582;2023-01-30T08:10:42;97325.56;;;0.28;100.00
59767;BME280;46248;58.364;25.582;2023-01-30T08:14:04;97321.31;;;0.27;100.00
59767;BME280;46248;58.364;25.582;2023-01-30T08:17:26;97315.47;;;0.25;100.00
59767;BME280;46248;58.364;25.582;2023-01-30T08:20:48;97312.06;;;0.25;100.00
59767;BME280;46248;58.364;25.582;2023-01-30T08:24:10;97318.22;;;0.22;100.00
59767;BME280;46248;58.364;25.582;2023-01-30T08:27:33;97316.19;;;0.27;100.00
59767;BME280;46248;58.364;25.582;2023-01-30T08:30:55;97304.06;;;0.29;100.00
59767;BME280;46248;58.364;25.582;2023-01-30T08:34:18;97306.53;;;0.31;100.00
59767;BME280;46248;58.364;25.582;2023-01-30T08:37:40;97307.91;;;0.36;100.00
59767;BME280;46248;58.364;25.582;2023-01-30T08:41:04;97311.41;;;0.35;100.00
59767;BME280;46248;58.364;25.582;2023-01-30T08:44:28;97311.22;;;0.38;100.00
59767;BME280;46248;58.364;25.582;2023-01-30T08:47:50;97304.22;;;0.40;100.00
59767;BME280;46248;58.364;25.582;2023-01-30T08:51:12;97296.59;;;0.39;100.00
59767;BME280;46248;58.364;25.582;2023-01-30T08:54:34;97289.72;;;0.39;100.00
59767;BME280;46248;58.364;25.582;2023-01-30T08:57:56;97296.41;;;0.42;100.00
59767;BME280;46248;58.364;25.582;2023-01-30T09:01:19;97291.81;;;0.47;100.00
59767;BME280;46248;58.364;25.582;2023-01-30T09:04:41;97287.41;;;0.49;100.00
59767;BME280;46248;58.364;25.582;2023-01-30T09:08:03;97285.53;;;0.51;100.00
59767;BME280;46248;58.364;25.582;2023-01-30T09:11:26;97283.44;;;0.58;100.00
59767;BME280;46248;58.364;25.582;2023-01-30T09:14:48;97279.81;;;0.60;100.00
59767;BME280;46248;58.364;25.582;2023-01-30T09:18:14;97284.38;;;0.69;100.00
59767;BME280;46248;58.364;25.582;2023-01-30T09:21:36;97279.97;;;0.72;100.00
59767;BME280;46248;58.364;25.582;2023-01-30T09:25:00;97284.38;;;0.69;100.00
59767;BME280;46248;58.364;25.582;2023-01-30T09:28:21;97284.28;;;0.71;100.00
59767;BME280;46248;58.364;25.582;2023-01-30T09:31:43;97278.22;;;0.72;100.00
59767;BME280;46248;58.364;25.582;2023-01-30T09:35:06;97288.44;;;0.74;100.00
59767;BME280;46248;58.364;25.582;2023-01-30T09:38:29;97279.16;;;0.71;100.00
59767;BME280;46248;58.364;25.582;2023-01-30T09:42:03;97259.31;;;0.59;100.00
59767;BME280;46248;58.364;25.582;2023-01-30T09:45:37;97272.63;;;0.65;100.00
59767;BME280;46248;58.364;25.582;2023-01-30T09:49:08;97279.78;;;0.75;100.00
59767;BME280;46248;58.364;25.582;2023-01-30T09:52:49;97271.16;;;0.76;100.00
59767;BME280;46248;58.364;25.582;2023-01-30T09:56:13;97276.91;;;0.79;100.00
59767;BME280;46248;58.364;25.582;2023-01-30T09:59:44;97269.09;;;0.81;100.00
59767;BME280;46248;58.364;25.582;2023-01-30T10:03:10;97277.53;;;0.83;100.00
59767;BME280;46248;58.364;25.582;2023-01-30T10:06:35;97277.44;;;0.84;100.00
59767;BME280;46248;58.364;25.582;2023-01-30T10:10:05;97269.63;;;0.86;100.00
59767;BME280;46248;58.364;25.582;2023-01-30T10:13:42;97271.47;;;0.84;100.00
59767;BME280;46248;58.364;25.582;2023-01-30T10:17:21;97262.72;;;0.86;100.00
59767;BME280;46248;58.364;25.582;2023-01-30T10:20:49;97267.59;;;0.91;100.00
59767;BME280;46248;58.364;25.582;2023-01-30T10:24:36;97267.63;;;1.04;100.00
59767;BME280;46248;58.364;25.582;2023-01-30T10:28:05;97275.97;;;1.07;100.00
59767;BME280;46248;58.364;25.582;2023-01-30T10:31:35;97264.44;;;1.13;100.00
59767;BME280;46248;58.364;25.582;2023-01-30T10:35:03;97270.97;;;1.19;100.00
59767;BME280;46248;58.364;25.582;2023-01-30T10:38:29;97278.56;;;1.20;100.00
59767;BME280;46248;58.364;25.582;2023-01-30T10:42:01;97262.22;;;1.21;100.00
59767;BME280;46248;58.364;25.582;2023-01-30T10:45:33;97266.63;;;1.19;100.00
59767;BME280;46248;58.364;25.582;2023-01-30T10:48:59;97270.56;;;1.25;100.00
59767;BME280;46248;58.364;25.582;2023-01-30T10:52:33;97261.28;;;1.22;100.00
59767;BME280;46248;58.364;25.582;2023-01-30T10:56:07;97254.16;;;1.26;100.00
59767;BME280;46248;58.364;25.582;2023-01-30T10:59:40;97256.03;;;1.36;100.00
59767;BME280;46248;58.364;25.582;2023-01-30T11:03:17;97252.19;;;1.42;100.00
59767;BME280;46248;58.364;25.582;2023-01-30T11:06:41;97251.19;;;1.45;100.00
59767;BME280;46248;58.364;25.582;2023-01-30T11:10:14;97255.84;;;1.52;100.00
59767;BME280;46248;58.364;25.582;2023-01-30T11:13:36;97247.09;;;1.55;100.00
59767;BME280;46248;58.364;25.582;2023-01-30T11:16:58;97235.53;;;1.60;100.00
59767;BME280;46248;58.364;25.582;2023-01-30T11:20:24;97235.41;;;1.62;100.00
59767;BME280;46248;58.364;25.582;2023-01-30T11:23:46;97239.53;;;1.65;100.00
59767;BME280;46248;58.364;25.582;2023-01-30T11:27:10;97247.91;;;1.68;100.00
59767;BME280;46248;58.364;25.582;2023-01-30T11:30:34;97240.88;;;1.70;100.00
59767;BME280;46248;58.364;25.582;2023-01-30T11:34:02;97233.84;;;1.72;100.00
59767;BME280;46248;58.364;25.582;2023-01-30T11:37:30;97240.88;;;1.70;100.00
59767;BME280;46248;58.364;25.582;2023-01-30T11:41:02;97239.34;;;1.68;100.00
59767;BME280;46248;58.364;25.582;2023-01-30T11:44:26;97224.16;;;1.63;100.00
59767;BME280;46248;58.364;25.582;2023-01-30T11:47:53;97237.38;;;1.71;100.00
59767;BME280;46248;58.364;25.582;2023-01-30T11:51:25;97230.97;;;1.77;100.00
59767;BME280;46248;58.364;25.582;2023-01-30T11:54:50;97211.25;;;1.63;100.00
59767;BME280;46248;58.364;25.582;2023-01-30T11:58:13;97232.63;;;1.78;100.00
59767;BME280;46248;58.364;25.582;2023-01-30T12:01:36;97236.94;;;1.77;100.00
59767;BME280;46248;58.364;25.582;2023-01-30T12:05:00;97236.94;;;1.77;100.00
59767;BME280;46248;58.364;25.582;2023-01-30T12:08:25;97234.38;;;1.77;100.00
59767;BME280;46248;58.364;25.582;2023-01-30T12:12:02;97238.72;;;1.77;100.00
59767;BME280;46248;58.364;25.582;2023-01-30T12:15:25;97235.63;;;1.72;100.00
59767;BME280;46248;58.364;25.582;2023-01-30T12:18:54;97239.66;;;1.76;100.00
59767;BME280;46248;58.364;25.582;2023-01-30T12:22:23;97248.91;;;1.78;100.00
59767;BME280;46248;58.364;25.582;2023-01-30T12:25:55;97225.50;;;1.69;100.00
59767;BME280;46248;58.364;25.582;2023-01-30T12:29:27;97233.56;;;1.77;100.00
59767;BME280;46248;58.364;25.582;2023-01-30T12:32:53;97242.94;;;1.78;100.00
59767;BME280;46248;58.364;25.582;2023-01-30T12:36:24;97234.59;;;1.74;100.00
59767;BME280;46248;58.364;25.582;2023-01-30T12:39:56;97214.97;;;1.72;100.00
59767;BME280;46248;58.364;25.582;2023-01-30T12:43:41;97220.34;;;1.69;100.00
59767;BME280;46248;58.364;25.582;2023-01-30T12:47:23;97227.66;;;1.75;100.00
59767;BME280;46248;58.364;25.582;2023-01-30T12:51:02;97210.66;;;1.59;100.00
59767;BME280;46248;58.364;25.582;2023-01-30T12:54:38;97241.19;;;1.66;100.00
59767;BME280;46248;58.364;25.582;2023-01-30T12:58:10;97235.72;;;1.70;100.00
59767;BME280;46248;58.364;25.582;2023-01-30T13:01:44;97246.03;;;1.70;100.00
59767;BME280;46248;58.364;25.582;2023-01-30T13:05:24;97246.88;;;1.71;100.00
59767;BME280;46248;58.364;25.582;2023-01-30T13:09:10;97240.88;;;1.70;100.00
59767;BME280;46248;58.364;25.582;2023-01-30T13:12:40;97259.75;;;1.71;100.00
59767;BME280;46248;58.364;25.582;2023-01-30T13:16:14;97242.66;;;1.70;100.00
59767;BME280;46248;58.364;25.582;2023-01-30T13:19:42;97254.91;;;1.66;100.00
59767;BME280;46248;58.364;25.582;2023-01-30T13:23:14;97239.13;;;1.58;100.00
59767;BME280;46248;58.364;25.582;2023-01-30T13:26:40;97246.06;;;1.57;100.00
59767;BME280;46248;58.364;25.582;2023-01-30T13:30:05;97259.03;;;1.69;100.00
59767;BME280;46248;58.364;25.582;2023-01-30T13:33:32;97251.41;;;1.54;100.00
59767;BME280;46248;58.364;25.582;2023-01-30T13:36:58;97264.94;;;1.58;100.00
59767;BME280;46248;58.364;25.582;2023-01-30T13:40:27;97269.34;;;1.56;100.00
59767;BME280;46248;58.364;25.582;2023-01-30T13:43:53;97270.50;;;1.52;100.00
59767;BME280;46248;58.364;25.582;2023-01-30T13:47:26;97278.44;;;1.49;100.00
59767;BME280;46248;58.364;25.582;2023-01-30T13:51:15;97279.44;;;1.46;100.00
59767;BME280;46248;58.364;25.582;2023-01-30T13:54:51;97280.34;;;1.45;100.00
59767;BME280;46248;58.364;25.582;2023-01-30T13:58:35;97276.66;;;1.36;100.00
59767;BME280;46248;58.364;25.582;2023-01-30T14:02:14;97274.91;;;1.37;100.00
59767;BME280;46248;58.364;25.582;2023-01-30T14:09:49;97277.88;;;1.31;100.00
59767;BME280;46248;58.364;25.582;2023-01-30T14:13:13;97287.25;;;1.32;100.00
59767;BME280;46248;58.364;25.582;2023-01-30T14:16:43;97279.66;;;1.30;100.00
59767;BME280;46248;58.364;25.582;2023-01-30T14:20:14;97283.94;;;1.30;100.00
59767;BME280;46248;58.364;25.582;2023-01-30T14:23:39;97282.31;;;1.29;100.00
59767;BME280;46248;58.364;25.582;2023-01-30T14:27:04;97281.28;;;1.31;100.00
59767;BME280;46248;58.364;25.582;2023-01-30T14:30:46;97285.00;;;1.27;100.00
59767;BME280;46248;58.364;25.582;2023-01-30T14:41:33;97298.59;;;1.29;100.00
59767;BME280;46248;58.364;25.582;2023-01-30T14:44:57;97282.31;;;1.29;100.00
59767;BME280;46248;58.364;25.582;2023-01-30T14:48:27;97282.72;;;1.23;100.00
59767;BME280;46248;58.364;25.582;2023-01-30T14:51:51;97286.53;;;1.30;100.00
59767;BME280;46248;58.364;25.582;2023-01-30T14:55:17;97283.66;;;1.22;100.00
59767;BME280;46248;58.364;25.582;2023-01-30T14:58:50;97293.56;;;1.28;100.00
59767;BME280;46248;58.364;25.582;2023-01-30T15:02:19;97297.69;;;1.30;100.00
59767;BME280;46248;58.364;25.582;2023-01-30T15:05:47;97302.84;;;1.30;100.00
59767;BME280;46248;58.364;25.582;2023-01-30T15:09:09;97299.53;;;1.28;100.00
59767;BME280;46248;58.364;25.582;2023-01-30T15:13:03;97307.06;;;1.31;100.00
59767;BME280;46248;58.364;25.582;2023-01-30T15:16:46;97306.25;;;1.31;100.00
59767;BME280;46248;58.364;25.582;2023-01-30T15:20:21;97305.50;;;1.29;100.00
59767;BME280;46248;58.364;25.582;2023-01-30T15:24:00;97321.72;;;1.31;100.00
59767;BME280;46248;58.364;25.582;2023-01-30T15:27:29;97322.63;;;1.30;100.00
59767;BME280;46248;58.364;25.582;2023-01-30T15:30:56;97318.31;;;1.30;100.00
59767;BME280;46248;58.364;25.582;2023-01-30T15:34:22;97307.25;;;1.28;100.00
59767;BME280;46248;58.364;25.582;2023-01-30T15:37:49;97303.94;;;1.26;100.00
59767;BME280;46248;58.364;25.582;2023-01-30T15:41:11;97315.94;;;1.27;100.00
59767;BME280;46248;58.364;25.582;2023-01-30T15:44:45;97320.34;;;1.25;100.00
59767;BME280;46248;58.364;25.582;2023-01-30T15:48:32;97322.72;;;1.28;100.00
59767;BME280;46248;58.364;25.582;2023-01-30T15:52:01;97327.75;;;1.30;100.00
59767;BME280;46248;58.364;25.582;2023-01-30T15:55:26;97327.06;;;1.28;100.00
59767;BME280;46248;58.364;25.582;2023-01-30T15:58:50;97325.50;;;1.25;100.00
59767;BME280;46248;58.364;25.582;2023-01-30T16:02:17;97314.16;;;1.15;100.00
59767;BME280;46248;58.364;25.582;2023-01-30T16:05:45;97316.22;;;1.23;100.00
59767;BME280;46248;58.364;25.582;2023-01-30T16:09:18;97293.28;;;1.05;100.00
59767;BME280;46248;58.364;25.582;2023-01-30T16:12:40;97314.84;;;1.17;100.00
59767;BME280;46248;58.364;25.582;2023-01-30T16:16:05;97325.16;;;1.17;100.00
59767;BME280;46248;58.364;25.582;2023-01-30T16:19:32;97320.81;;;1.18;100.00
59767;BME280;46248;58.364;25.582;2023-01-30T16:22:54;97316.81;;;1.13;100.00
59767;BME280;46248;58.364;25.582;2023-01-30T16:26:18;97326.72;;;1.20;100.00
59767;BME280;46248;58.364;25.582;2023-01-30T16:29:46;97313.09;;;1.18;100.00
59767;BME280;46248;58.364;25.582;2023-01-30T16:33:14;97317.34;;;1.19;100.00
59767;BME280;46248;58.364;25.582;2023-01-30T16:36:39;97319.00;;;1.20;100.00
59767;BME280;46248;58.364;25.582;2023-01-30T16:40:12;97306.09;;;1.20;100.00
59767;BME280;46248;58.364;25.582;2023-01-30T16:43:35;97308.69;;;1.20;100.00
59767;BME280;46248;58.364;25.582;2023-01-30T16:47:03;97303.53;;;1.20;100.00
59767;BME280;46248;58.364;25.582;2023-01-30T16:50:25;97291.47;;;1.20;100.00
59767;BME280;46248;58.364;25.582;2023-01-30T16:53:54;97293.69;;;1.12;100.00
59767;BME280;46248;58.364;25.582;2023-01-30T16:57:27;97301.88;;;1.19;100.00
59767;BME280;46248;58.364;25.582;2023-01-30T17:00:54;97312.06;;;1.20;100.00
59767;BME280;46248;58.364;25.582;2023-01-30T17:04:19;97291.78;;;1.16;100.00
59767;BME280;46248;58.364;25.582;2023-01-30T17:07:41;97302.91;;;1.16;100.00
59767;BME280;46248;58.364;25.582;2023-01-30T17:11:03;97311.44;;;1.17;100.00
59767;BME280;46248;58.364;25.582;2023-01-30T17:14:26;97309.34;;;1.09;100.00
59767;BME280;46248;58.364;25.582;2023-01-30T17:17:52;97321.75;;;1.17;100.00
59767;BME280;46248;58.364;25.582;2023-01-30T17:21:14;97312.78;;;1.09;100.00
59767;BME280;46248;58.364;25.582;2023-01-30T17:24:36;97306.16;;;1.05;100.00
59767;BME280;46248;58.364;25.582;2023-01-30T17:27:58;97319.09;;;1.18;100.00
59767;BME280;46248;58.364;25.582;2023-01-30T17:31:20;97321.69;;;1.18;100.00
59767;BME280;46248;58.364;25.582;2023-01-30T17:34:44;97319.28;;;1.15;100.00
59767;BME280;46248;58.364;25.582;2023-01-30T17:38:06;97334.38;;;1.21;100.00
59767;BME280;46248;58.364;25.582;2023-01-30T17:41:28;97338.78;;;1.19;100.00
59767;BME280;46248;58.364;25.582;2023-01-30T17:44:52;97335.38;;;1.19;100.00
59767;BME280;46248;58.364;25.582;2023-01-30T17:48:15;97345.56;;;1.20;100.00
59767;BME280;46248;58.364;25.582;2023-01-30T17:51:38;97350.72;;;1.20;100.00
59767;BME280;46248;58.364;25.582;2023-01-30T17:55:00;97346.50;;;1.19;100.00
59767;BME280;46248;58.364;25.582;2023-01-30T17:58:22;97341.34;;;1.19;100.00
59767;BME280;46248;58.364;25.582;2023-01-30T18:01:45;97345.06;;;1.15;100.00
59767;BME280;46248;58.364;25.582;2023-01-30T18:05:08;97357.75;;;1.18;100.00
59767;BME280;46248;58.364;25.582;2023-01-30T18:08:31;97357.75;;;1.18;100.00